Time;durP1;ratioP1;P1;durP2;ratioP2;P2;SDS_P1;SDS_P2;PMS_P1;PMS_P2;Temp;Humidity;BMP_temperature;BMP_pressure;BME280_temperature;BME280_humidity;BME280_pressure;Samples;Min_cycle;Max_cycle;Signal;HPM_P1;HPM_P2
2022/06/14 00:03:15;;;;;;;1.17;0.93;;;18.70;91.90;;;;;;4951246;28;20053;-76
2022/06/14 00:05:41;;;;;;;2.45;0.98;;;18.70;91.90;;;;;;4950297;28;20646;-76
2022/06/14 00:08:07;;;;;;;1.38;0.98;;;18.70;91.90;;;;;;4951765;28;20051;-75
2022/06/14 00:10:33;;;;;;;1.98;1.10;;;18.70;92.10;;;;;;4951946;28;20063;-80
2022/06/14 00:12:58;;;;;;;2.65;1.00;;;18.70;91.90;;;;;;4948380;28;20106;-76
2022/06/14 00:15:24;;;;;;;2.33;1.25;;;18.70;92.00;;;;;;4950976;28;20027;-76
2022/06/14 00:17:49;;;;;;;2.58;1.00;;;18.70;92.00;;;;;;4950827;28;20038;-74
2022/06/14 00:20:15;;;;;;;1.40;0.98;;;18.70;91.90;;;;;;4948352;28;20039;-75
2022/06/14 00:22:41;;;;;;;3.65;1.20;;;18.70;91.80;;;;;;4949630;28;20133;-76
2022/06/14 00:25:07;;;;;;;2.75;1.00;;;18.70;91.80;;;;;;4950915;28;20036;-74
2022/06/14 00:27:33;;;;;;;2.17;1.00;;;18.70;91.70;;;;;;4949731;28;20035;-74
2022/06/14 00:29:58;;;;;;;2.10;1.00;;;18.70;91.70;;;;;;4950689;28;20046;-75
2022/06/14 00:32:24;;;;;;;1.90;1.00;;;18.80;91.70;;;;;;4949143;28;20034;-76
2022/06/14 00:34:49;;;;;;;1.50;0.93;;;18.70;91.80;;;;;;4949577;28;20027;-75
2022/06/14 00:37:18;;;;;;;1.83;0.90;;;18.70;91.70;;;;;;4950544;28;20049;-80
2022/06/14 00:39:44;;;;;;;2.40;1.20;;;18.70;91.80;;;;;;4949307;28;20391;-75
2022/06/14 00:42:21;;;;;;;1.05;0.80;;;18.70;91.80;;;;;;4950531;28;20051;-75
2022/06/14 00:45:05;;;;;;;1.55;0.90;;;18.60;91.80;;;;;;4950554;28;20031;-78
2022/06/14 00:47:59;;;;;;;3.50;1.20;;;18.70;91.90;;;;;;4950318;29;20047;-75
2022/06/14 00:50:30;;;;;;;1.58;1.10;;;18.60;91.90;;;;;;4935525;28;20046;-75
2022/06/14 00:53:01;;;;;;;2.58;1.10;;;18.70;92.00;;;;;;4949102;29;20034;-75
2022/06/14 00:55:36;;;;;;;1.55;0.95;;;18.60;91.90;;;;;;4949356;28;20039;-79
2022/06/14 00:58:12;;;;;;;2.17;1.02;;;18.60;91.90;;;;;;4949082;28;20089;-75
2022/06/14 01:00:43;;;;;;;3.22;1.25;;;18.60;91.90;;;;;;4949183;29;20074;-80
2022/06/14 01:03:15;;;;;;;1.60;0.93;;;18.60;91.90;;;;;;4949771;28;20027;-82
2022/06/14 01:06:06;;;;;;;1.42;0.98;;;18.60;91.80;;;;;;4948865;28;20040;-75
2022/06/14 01:08:41;;;;;;;2.22;1.15;;;18.60;91.80;;;;;;4948627;28;20158;-75
2022/06/14 01:11:13;;;;;;;1.80;0.80;;;18.60;92.00;;;;;;4950540;28;20031;-76
2022/06/14 01:13:39;;;;;;;2.15;0.95;;;18.60;92.00;;;;;;4949877;28;20019;-74
2022/06/14 01:16:05;;;;;;;2.33;1.20;;;18.60;92.00;;;;;;4948838;28;20027;-75
2022/06/14 01:18:31;;;;;;;1.92;0.93;;;18.70;91.90;;;;;;4950160;28;20031;-75
2022/06/14 01:20:56;;;;;;;1.33;0.90;;;18.70;91.80;;;;;;4950085;28;20151;-75
2022/06/14 01:23:22;;;;;;;3.97;1.15;;;18.70;91.70;;;;;;4949704;28;20034;-74
2022/06/14 01:26:12;;;;;;;2.28;0.95;;;18.70;91.70;;;;;;4949776;28;20031;-74
2022/06/14 01:28:42;;;;;;;2.22;1.00;;;18.70;91.70;;;;;;4950034;28;20874;-73
2022/06/14 01:31:08;;;;;;;1.95;1.00;;;18.70;91.80;;;;;;4930170;29;20078;-75
2022/06/14 01:33:39;;;;;;;2.47;0.90;;;18.70;91.80;;;;;;4933425;29;20087;-75
2022/06/14 01:36:14;;;;;;;1.35;0.90;;;18.70;91.90;;;;;;4934864;29;20027;-75
2022/06/14 01:38:42;;;;;;;3.17;1.15;;;18.50;91.80;;;;;;4951752;29;20428;-75
2022/06/14 01:41:30;;;;;;;2.22;1.40;;;18.60;91.90;;;;;;4952489;29;20691;-76
2022/06/14 01:44:01;;;;;;;1.95;1.10;;;18.60;91.90;;;;;;4950622;28;20385;-77
2022/06/14 01:46:30;;;;;;;1.90;1.00;;;18.60;91.90;;;;;;4952587;29;20035;-78
2022/06/14 01:52:03;;;;;;;1.30;0.90;;;18.60;92.00;;;;;;4954043;29;20669;-74
2022/06/14 01:55:03;;;;;;;1.25;0.82;;;18.60;92.00;;;;;;4953030;28;20436;-76
2022/06/14 01:57:48;;;;;;;2.15;1.00;;;18.60;91.90;;;;;;4953222;28;20035;-75
2022/06/14 02:00:19;;;;;;;1.00;0.82;;;18.60;91.90;;;;;;4953255;28;20034;-74
2022/06/14 02:06:13;;;;;;;1.20;0.82;;;18.60;91.90;;;;;;4934709;29;20086;-77
2022/06/14 02:09:03;;;;;;;2.83;1.08;;;18.60;92.00;;;;;;4942416;29;20035;-74
2022/06/14 02:11:31;;;;;;;;;;;18.60;92.00;;;;;;4952375;28;20027;-76
2022/06/14 02:14:08;;;;;;;1.70;0.98;;;18.60;91.90;;;;;;4952939;28;19917;-76
2022/06/14 02:16:39;;;;;;;2.97;1.00;;;18.60;91.90;;;;;;4951810;28;20039;-75
2022/06/14 02:19:16;;;;;;;1.20;1.02;;;18.60;91.80;;;;;;4952038;28;20074;-75
2022/06/14 02:21:47;;;;;;;1.98;0.90;;;18.70;91.80;;;;;;4952776;28;20050;-75
2022/06/14 02:24:24;;;;;;;2.22;1.10;;;18.70;91.80;;;;;;4950604;28;20023;-76
2022/06/14 02:27:01;;;;;;;1.25;0.90;;;18.60;91.80;;;;;;4953087;28;20050;-77
2022/06/14 02:29:48;;;;;;;2.10;1.20;;;18.60;91.80;;;;;;4952090;28;20082;-75
2022/06/14 02:32:24;;;;;;;2.17;1.15;;;18.60;91.80;;;;;;4953054;28;20035;-76
2022/06/14 02:35:06;;;;;;;0.98;0.82;;;18.60;91.90;;;;;;4952950;28;20031;-80
2022/06/14 02:37:45;;;;;;;1.67;1.00;;;18.60;91.90;;;;;;4952701;28;20023;-75
2022/06/14 02:40:19;;;;;;;1.95;0.90;;;18.60;91.90;;;;;;4944912;29;20322;-75
2022/06/14 02:42:52;;;;;;;1.83;0.93;;;18.60;92.00;;;;;;4950488;28;20099;-74
2022/06/14 02:45:25;;;;;;;2.25;0.90;;;18.60;92.00;;;;;;4952725;28;20053;-75
2022/06/14 02:48:07;;;;;;;1.52;0.90;;;18.60;92.00;;;;;;4952496;28;20028;-76
2022/06/14 02:50:45;;;;;;;1.20;0.80;;;18.60;92.00;;;;;;4951335;28;20487;-80
2022/06/14 02:53:16;;;;;;;1.40;0.93;;;18.50;91.90;;;;;;4952107;28;20031;-75
2022/06/14 02:55:58;;;;;;;;;;;18.50;91.90;;;;;;4953173;28;20114;-75
2022/06/14 02:58:25;;;;;;;1.73;0.90;;;18.50;91.90;;;;;;4937175;29;19960;-79
2022/06/14 03:01:16;;;;;;;1.52;0.93;;;18.50;91.90;;;;;;4951151;28;20031;-75
2022/06/14 03:03:56;;;;;;;1.20;0.90;;;18.50;91.90;;;;;;4951941;28;20098;-74
2022/06/14 03:06:32;;;;;;;2.55;0.90;;;18.50;92.00;;;;;;4950989;28;20027;-75
2022/06/14 03:09:23;;;;;;;1.85;1.00;;;18.50;92.00;;;;;;4951083;29;20031;-75
2022/06/14 03:11:51;;;;;;;1.15;0.90;;;18.60;91.90;;;;;;4952366;28;20480;-75
2022/06/14 03:14:30;;;;;;;1.63;0.98;;;18.60;91.90;;;;;;4951547;28;20527;-74
2022/06/14 03:17:13;;;;;;;1.73;0.90;;;18.60;91.80;;;;;;4950897;28;20031;-75
2022/06/14 03:19:55;;;;;;;1.40;0.95;;;18.60;91.80;;;;;;4951779;29;20082;-76
2022/06/14 03:22:24;;;;;;;1.58;0.98;;;18.70;91.80;;;;;;4950355;28;20408;-75
2022/06/14 03:24:58;;;;;;;1.10;0.90;;;18.60;91.80;;;;;;4950699;28;20101;-75
2022/06/14 03:27:38;;;;;;;1.17;0.90;;;18.60;91.80;;;;;;4950757;29;20078;-77
2022/06/14 03:30:11;;;;;;;1.83;1.00;;;18.60;91.90;;;;;;4932826;29;20556;-75
2022/06/14 03:32:40;;;;;;;2.13;0.93;;;18.60;91.90;;;;;;4950353;28;20056;-74
2022/06/14 03:35:29;;;;;;;1.40;1.00;;;18.60;91.90;;;;;;4951842;28;20085;-74
2022/06/14 03:37:57;;;;;;;1.23;0.73;;;18.50;91.90;;;;;;4951604;28;20463;-75
2022/06/14 03:40:23;;;;;;;1.92;1.02;;;18.50;91.90;;;;;;4951695;28;20034;-75
2022/06/14 03:42:49;;;;;;;2.17;1.00;;;18.50;92.00;;;;;;4949988;28;20027;-80
2022/06/14 03:45:20;;;;;;;1.27;1.00;;;18.50;92.00;;;;;;4950195;28;20043;-77
2022/06/14 03:47:46;;;;;;;0.95;0.85;;;18.50;92.00;;;;;;4950454;29;20035;-75
2022/06/14 03:50:23;;;;;;;1.80;1.08;;;18.50;91.90;;;;;;4950625;28;20035;-80
2022/06/14 03:53:10;;;;;;;1.90;0.90;;;18.50;91.90;;;;;;4951136;28;20050;-75
2022/06/14 03:55:47;;;;;;;1.35;0.85;;;18.50;91.90;;;;;;4950295;28;20358;-76
2022/06/14 03:58:33;;;;;;;1.65;1.00;;;18.50;91.80;;;;;;4951198;28;20039;-75
2022/06/14 04:01:11;;;;;;;1.10;0.90;;;18.50;91.80;;;;;;4951319;28;20028;-75
2022/06/14 04:03:36;;;;;;;1.92;0.93;;;18.50;92.00;;;;;;4950826;28;20118;-75
2022/06/14 04:06:27;;;;;;;2.00;0.90;;;18.50;92.00;;;;;;4949969;28;20114;-76
2022/06/14 04:09:01;;;;;;;1.80;0.93;;;18.50;91.90;;;;;;4950903;28;20612;-75
2022/06/14 04:11:49;;;;;;;2.10;1.00;;;18.60;91.90;;;;;;4950903;28;20035;-75
2022/06/14 04:14:54;;;;;;;2.17;1.00;;;18.60;91.80;;;;;;4947444;28;20038;-77
2022/06/14 04:17:33;;;;;;;1.63;0.90;;;18.60;91.80;;;;;;4930542;29;20079;-75
2022/06/14 04:20:13;;;;;;;1.45;0.80;;;18.60;91.70;;;;;;4940824;29;20102;-77
2022/06/14 04:23:05;;;;;;;1.15;0.90;;;18.60;91.80;;;;;;4950546;28;20082;-78
2022/06/14 04:25:38;;;;;;;1.92;1.00;;;18.50;91.80;;;;;;4951015;28;20047;-80
2022/06/14 04:28:21;;;;;;;1.67;1.00;;;18.60;91.80;;;;;;4942929;29;20027;-74
2022/06/14 04:30:46;;;;;;;1.55;0.90;;;18.50;91.90;;;;;;4956112;28;20057;-75
2022/06/14 04:33:19;;;;;;;1.70;0.88;;;18.50;91.90;;;;;;4956291;28;20031;-80
2022/06/14 04:35:58;;;;;;;1.85;1.00;;;18.50;91.90;;;;;;4931275;29;20035;-75
2022/06/14 04:38:49;;;;;;;1.25;0.90;;;18.50;91.90;;;;;;4948970;28;20031;-76
2022/06/14 04:41:21;;;;;;;0.93;0.82;;;18.50;91.90;;;;;;4945626;28;20127;-76
2022/06/14 04:43:47;;;;;;;1.50;0.82;;;18.50;91.90;;;;;;4950665;28;20034;-74
2022/06/14 04:46:38;;;;;;;1.20;0.80;;;18.50;92.00;;;;;;4949225;28;20027;-75
2022/06/14 04:49:16;;;;;;;1.30;0.88;;;18.50;91.90;;;;;;4942232;28;20145;-75
2022/06/14 04:51:49;;;;;;;2.13;1.33;;;18.50;91.90;;;;;;4950657;28;20031;-75
2022/06/14 04:54:38;;;;;;;1.10;0.90;;;18.50;91.90;;;;;;4949951;28;20046;-78
2022/06/14 04:57:27;;;;;;;1.48;0.90;;;18.50;91.90;;;;;;4950478;28;20023;-75
2022/06/14 04:59:59;;;;;;;2.17;0.80;;;18.50;91.90;;;;;;4949532;28;20571;-82
2022/06/14 05:02:31;;;;;;;1.90;1.10;;;18.50;91.90;;;;;;4950006;28;20031;-80
2022/06/14 05:05:23;;;;;;;2.33;1.00;;;18.50;91.90;;;;;;4949018;28;20066;-75
2022/06/14 05:07:57;;;;;;;1.15;0.82;;;18.50;91.80;;;;;;4929090;28;20035;-75
2022/06/14 05:13:48;;;;;;;1.33;0.90;;;18.60;91.70;;;;;;4939728;28;20034;-76
2022/06/14 05:16:19;;;;;;;1.08;0.80;;;18.50;91.60;;;;;;4944048;28;20131;-75
2022/06/14 05:18:58;;;;;;;1.67;0.90;;;18.60;91.70;;;;;;4949110;29;20051;-76
2022/06/14 05:21:33;;;;;;;1.50;0.80;;;18.60;91.70;;;;;;4950269;28;20444;-74
2022/06/14 05:23:59;;;;;;;1.20;0.77;;;18.60;91.70;;;;;;4950159;28;20061;-74
2022/06/14 05:26:43;;;;;;;1.58;0.90;;;18.60;91.70;;;;;;4950393;28;20035;-73
2022/06/14 05:29:27;;;;;;;1.00;0.75;;;18.60;91.70;;;;;;4968991;28;20031;-74
2022/06/14 05:32:10;;;;;;;1.17;0.90;;;18.50;91.70;;;;;;4968275;28;20094;-73
2022/06/14 05:34:59;;;;;;;1.33;1.00;;;18.50;91.80;;;;;;4949387;28;20396;-76
2022/06/14 05:37:44;;;;;;;1.80;0.90;;;18.50;91.80;;;;;;4929231;29;20560;-75
2022/06/14 05:40:32;;;;;;;1.10;0.80;;;18.50;91.80;;;;;;4930570;29;20031;-77
2022/06/14 05:43:14;;;;;;;1.33;0.98;;;18.50;91.80;;;;;;4939935;29;20023;-74
2022/06/14 05:45:42;;;;;;;1.02;0.85;;;18.50;91.70;;;;;;4948285;28;20031;-74
2022/06/14 05:48:14;;;;;;;1.75;0.90;;;18.50;91.70;;;;;;4954333;28;20147;-74
2022/06/14 05:50:44;;;;;;;1.85;0.90;;;18.50;91.70;;;;;;4969127;28;20033;-74
2022/06/14 05:53:28;;;;;;;1.65;0.90;;;18.50;91.60;;;;;;4968747;28;20517;-74
2022/06/14 05:56:01;;;;;;;1.45;0.90;;;18.50;91.60;;;;;;4962747;28;20032;-74
2022/06/14 06:02:18;;;;;;;1.55;0.80;;;18.50;91.60;;;;;;4948794;29;20511;-74
2022/06/14 06:04:52;;;;;;;1.10;0.80;;;18.60;91.60;;;;;;4921568;29;20050;-74
2022/06/14 06:07:26;;;;;;;2.15;0.90;;;18.60;91.50;;;;;;4937814;29;20030;-73
2022/06/14 06:10:01;;;;;;;1.75;0.90;;;18.60;91.40;;;;;;4952103;29;20472;-74
2022/06/14 06:12:33;;;;;;;1.58;0.80;;;18.60;91.40;;;;;;4960687;28;20026;-76
2022/06/14 06:15:12;;;;;;;0.98;0.77;;;18.60;91.30;;;;;;4965194;28;20019;-74
2022/06/14 06:17:56;;;;;;;1.40;0.80;;;18.70;91.40;;;;;;4951842;28;20027;-74
2022/06/14 06:20:42;;;;;;;1.98;1.10;;;18.60;91.40;;;;;;4955637;28;20023;-73
2022/06/14 06:23:21;;;;;;;0.85;0.82;;;18.60;91.40;;;;;;4941492;29;20053;-73
2022/06/14 06:26:10;;;;;;;1.48;0.82;;;18.60;91.50;;;;;;4954797;29;20059;-74
2022/06/14 06:28:42;;;;;;;1.27;0.80;;;18.60;91.50;;;;;;4953847;28;20126;-73
2022/06/14 06:31:18;;;;;;;1.35;0.77;;;18.60;91.50;;;;;;4955528;29;20032;-73
2022/06/14 06:33:48;;;;;;;1.00;0.80;;;18.60;91.50;;;;;;4956334;28;20042;-73
2022/06/14 06:36:22;;;;;;;1.42;0.80;;;18.60;91.50;;;;;;4956524;29;20037;-73
2022/06/14 06:39:20;;;;;;;2.67;1.00;;;18.60;91.80;;;;;;4956599;28;20027;-73
2022/06/14 06:41:54;;;;;;;1.05;0.80;;;18.60;91.50;;;;;;4955548;29;20503;-73
2022/06/14 06:44:36;;;;;;;1.98;1.05;;;18.60;91.50;;;;;;4954588;28;20027;-78
2022/06/14 06:47:13;;;;;;;1.67;1.00;;;18.60;91.40;;;;;;4947829;28;20381;-73
2022/06/14 06:49:41;;;;;;;0.98;0.88;;;18.60;91.40;;;;;;4935876;29;20026;-73
2022/06/14 06:52:10;;;;;;;1.67;1.02;;;18.60;91.40;;;;;;4936895;29;20370;-74
2022/06/14 06:54:46;;;;;;;1.38;0.80;;;18.60;91.40;;;;;;4936633;29;20477;-76
2022/06/14 06:57:17;;;;;;;1.55;0.90;;;18.60;91.50;;;;;;4937142;29;20030;-74
2022/06/14 06:59:46;;;;;;;1.57;0.80;;;18.70;91.40;;;;;;4937438;29;20489;-74
2022/06/14 07:02:32;;;;;;;1.30;0.90;;;18.70;91.30;;;;;;4937114;29;20268;-74
2022/06/14 07:05:03;;;;;;;1.17;0.88;;;18.70;91.20;;;;;;4937061;29;20028;-74
2022/06/14 07:07:48;;;;;;;1.55;0.90;;;18.80;91.10;;;;;;4945159;28;20550;-70
2022/06/14 07:10:26;;;;;;;1.17;0.80;;;18.80;91.00;;;;;;4960111;28;20030;-74
2022/06/14 07:13:00;;;;;;;2.13;0.88;;;18.80;90.90;;;;;;4963265;28;20437;-74
2022/06/14 07:16:05;;;;;;;2.33;0.90;;;18.80;90.80;;;;;;4954299;28;20400;-73
2022/06/14 07:18:41;;;;;;;2.47;0.90;;;18.80;90.90;;;;;;4954868;28;20027;-74
2022/06/14 07:21:15;;;;;;;1.33;0.85;;;18.80;90.80;;;;;;4956185;28;20031;-74
2022/06/14 07:23:55;;;;;;;1.17;0.80;;;18.70;90.80;;;;;;4954363;28;20019;-75
2022/06/14 07:26:43;;;;;;;2.10;0.90;;;18.80;90.90;;;;;;4954524;29;20492;-75
2022/06/14 07:29:35;;;;;;;2.05;1.00;;;18.80;91.00;;;;;;4954412;28;20062;-74
2022/06/14 07:32:23;;;;;;;1.30;0.80;;;18.80;91.00;;;;;;4954519;28;20031;-74
2022/06/14 07:34:50;;;;;;;1.52;0.90;;;18.70;91.00;;;;;;4954168;28;20122;-74
2022/06/14 07:37:37;;;;;;;1.10;0.90;;;18.80;91.00;;;;;;4954425;29;20392;-74
2022/06/14 07:40:14;;;;;;;1.42;0.90;;;18.70;91.00;;;;;;4955598;28;20068;-75
2022/06/14 07:43:11;;;;;;;1.58;0.90;;;18.70;91.00;;;;;;4955348;28;20051;-73
2022/06/14 07:45:48;;;;;;;1.63;0.90;;;18.70;91.00;;;;;;4953381;29;20090;-73
2022/06/14 07:48:28;;;;;;;1.67;0.93;;;18.70;90.90;;;;;;4954279;29;20031;-75
2022/06/14 07:51:46;;;;;;;1.75;0.93;;;18.70;91.00;;;;;;4955945;28;20027;-73
2022/06/14 07:54:28;;;;;;;2.40;1.13;;;18.70;91.10;;;;;;4943149;28;20035;-75
2022/06/14 07:57:00;;;;;;;1.95;1.00;;;18.70;91.00;;;;;;4954233;29;20170;-74
2022/06/14 07:59:38;;;;;;;1.83;0.90;;;18.80;90.90;;;;;;4955335;29;20043;-75
2022/06/14 08:02:12;;;;;;;1.95;1.08;;;18.80;90.80;;;;;;4951269;28;20030;-74
2022/06/14 08:04:46;;;;;;;4.20;1.08;;;18.90;90.70;;;;;;4954937;28;20027;-74
2022/06/14 08:07:15;;;;;;;3.17;1.00;;;18.90;90.60;;;;;;4955527;28;20023;-73
2022/06/14 08:10:06;;;;;;;2.78;1.10;;;18.90;90.60;;;;;;4953916;29;20070;-76
2022/06/14 08:12:37;;;;;;;1.15;0.88;;;18.80;90.50;;;;;;4953687;28;20491;-74
2022/06/14 08:15:10;;;;;;;;;;;18.90;90.60;;;;;;4955439;28;20050;-74
2022/06/14 08:18:03;;;;;;;2.28;0.90;;;18.80;90.70;;;;;;4955050;28;19906;-75
2022/06/14 08:20:38;;;;;;;1.20;0.70;;;18.80;90.80;;;;;;4955078;28;20023;-74
2022/06/14 08:23:12;;;;;;;1.45;1.00;;;18.80;90.80;;;;;;4954635;28;20019;-74
2022/06/14 08:25:42;;;;;;;1.48;0.98;;;18.80;90.90;;;;;;4951796;28;20032;-74
2022/06/14 08:28:17;;;;;;;1.65;0.98;;;18.70;90.90;;;;;;4951935;29;20034;-75
2022/06/14 08:30:50;;;;;;;2.28;0.90;;;18.70;91.00;;;;;;4953193;29;20063;-73
2022/06/14 08:33:19;;;;;;;1.38;0.90;;;18.70;91.00;;;;;;4954320;28;20035;-70
2022/06/14 08:35:50;;;;;;;1.88;0.75;;;18.70;91.00;;;;;;4954653;28;20125;-71
2022/06/14 08:38:22;;;;;;;1.58;0.90;;;18.70;91.00;;;;;;4954641;28;20039;-71
2022/06/14 08:40:48;;;;;;;1.98;1.00;;;18.70;91.00;;;;;;4953903;28;20097;-71
2022/06/14 08:43:43;;;;;;;1.85;0.95;;;18.70;91.00;;;;;;4952696;28;20027;-72
2022/06/14 08:46:26;;;;;;;2.75;1.00;;;18.70;91.00;;;;;;4945756;28;20035;-71
2022/06/14 08:49:13;;;;;;;2.20;1.00;;;18.70;91.00;;;;;;4954241;28;20079;-71
2022/06/14 08:52:21;;;;;;;2.28;1.10;;;18.70;91.10;;;;;;4954234;28;20455;-71
2022/06/14 08:55:23;;;;;;;1.35;1.08;;;18.70;91.10;;;;;;4953922;28;20493;-71
2022/06/14 08:58:17;;;;;;;1.40;0.95;;;18.70;91.00;;;;;;4954042;29;20063;-71
2022/06/14 09:00:55;;;;;;;1.00;0.80;;;18.80;91.00;;;;;;4953011;29;20106;-71
2022/06/14 09:03:47;;;;;;;2.05;0.82;;;18.80;90.90;;;;;;4953885;28;20020;-72
2022/06/14 09:06:42;;;;;;;2.45;1.10;;;18.80;90.90;;;;;;4952922;28;20023;-73
2022/06/14 09:09:57;;;;;;;1.20;0.90;;;18.80;90.90;;;;;;4954080;28;20031;-71
2022/06/14 09:12:53;;;;;;;1.33;1.05;;;18.80;90.90;;;;;;4953999;28;20027;-75
2022/06/14 09:15:54;;;;;;;1.30;0.90;;;18.80;90.90;;;;;;4953856;28;20023;-77
2022/06/14 09:18:37;;;;;;;1.65;0.90;;;18.70;90.90;;;;;;4954463;29;20126;-76
2022/06/14 09:21:16;;;;;;;2.63;1.10;;;18.80;91.00;;;;;;4952930;28;20019;-76
2022/06/14 09:24:10;;;;;;;1.50;1.02;;;18.70;91.00;;;;;;4952608;28;20027;-73
2022/06/14 09:26:59;;;;;;;1.42;0.90;;;18.70;91.00;;;;;;4952703;28;20027;-75
2022/06/14 09:30:00;;;;;;;2.10;0.90;;;18.70;90.90;;;;;;4953076;28;20035;-76
2022/06/14 09:35:51;;;;;;;3.03;1.02;;;18.80;91.00;;;;;;4954228;29;20075;-75
2022/06/14 09:38:53;;;;;;;1.10;1.00;;;18.80;90.90;;;;;;4952734;28;20496;-77
2022/06/14 09:41:21;;;;;;;1.15;0.93;;;18.80;90.90;;;;;;4952806;29;20386;-76
2022/06/14 09:44:17;;;;;;;2.72;1.00;;;18.80;90.90;;;;;;4953729;28;20023;-77
2022/06/14 09:47:01;;;;;;;1.60;0.90;;;18.80;90.90;;;;;;4953709;28;20081;-73
2022/06/14 09:49:52;;;;;;;2.90;1.10;;;18.80;90.90;;;;;;4952641;29;20031;-75
2022/06/14 09:52:32;;;;;;;;;;;18.90;90.90;;;;;;4954222;28;20024;-75
2022/06/14 09:55:27;;;;;;;1.25;0.90;;;18.80;90.90;;;;;;4957410;28;19961;-75
2022/06/14 09:58:10;;;;;;;1.42;0.82;;;18.80;90.80;;;;;;4957418;28;20373;-74
2022/06/14 10:00:47;;;;;;;1.73;1.00;;;18.90;90.70;;;;;;4956327;28;20019;-74
2022/06/14 10:03:23;;;;;;;1.42;1.00;;;18.90;90.70;;;;;;4957330;28;20095;-73
2022/06/14 10:06:14;;;;;;;2.42;0.90;;;18.90;90.60;;;;;;4956232;28;20031;-75
2022/06/14 10:09:01;;;;;;;1.95;1.10;;;18.90;90.60;;;;;;4956047;28;20126;-75
2022/06/14 10:11:57;;;;;;;1.83;0.93;;;18.90;90.50;;;;;;4956104;29;20523;-74
2022/06/14 10:14:52;;;;;;;2.75;1.00;;;19.00;90.40;;;;;;4955626;28;20126;-75
2022/06/14 10:17:54;;;;;;;2.03;0.90;;;19.00;90.30;;;;;;4957217;28;20078;-75
2022/06/14 10:20:25;;;;;;;2.25;0.90;;;19.00;90.20;;;;;;4957255;28;20027;-75
2022/06/14 10:23:16;;;;;;;;;;;19.00;90.30;;;;;;4955970;28;20023;-74
2022/06/14 10:28:57;;;;;;;1.90;0.93;;;18.90;90.30;;;;;;4957313;29;20082;-76
2022/06/14 10:31:40;;;;;;;3.03;1.15;;;18.90;90.60;;;;;;4957009;28;20476;-73
2022/06/14 10:34:18;;;;;;;2.40;1.20;;;18.80;90.40;;;;;;4955142;28;20126;-72
2022/06/14 10:36:59;;;;;;;2.10;1.15;;;18.80;90.40;;;;;;4956304;28;20019;-75
2022/06/14 10:39:34;;;;;;;3.05;1.13;;;18.80;90.40;;;;;;4956260;29;20086;-77
2022/06/14 10:42:19;;;;;;;3.10;1.08;;;18.80;90.50;;;;;;4955600;29;20019;-80
2022/06/14 10:44:55;;;;;;;2.97;1.00;;;18.80;90.50;;;;;;4957190;28;20035;-76
2022/06/14 10:47:59;;;;;;;3.13;1.10;;;18.80;90.50;;;;;;4956638;29;20031;-77
2022/06/14 10:50:27;;;;;;;3.55;1.10;;;18.80;90.40;;;;;;4916168;29;20536;-77
2022/06/14 10:53:15;;;;;;;3.88;1.05;;;18.90;90.40;;;;;;4948892;28;20039;-78
2022/06/14 10:56:11;;;;;;;1.58;0.98;;;19.00;90.30;;;;;;4958854;28;20098;-77
2022/06/14 10:59:12;;;;;;;2.72;1.20;;;19.00;90.20;;;;;;4953050;28;20134;-76
2022/06/14 11:01:50;;;;;;;3.58;1.30;;;19.00;90.20;;;;;;4956223;28;20050;-77
2022/06/14 11:04:30;;;;;;;2.97;1.33;;;19.00;90.20;;;;;;4955455;28;20404;-77
2022/06/14 11:07:11;;;;;;;2.72;1.00;;;19.00;90.20;;;;;;4956180;28;20611;-75
2022/06/14 11:09:52;;;;;;;1.42;0.90;;;18.90;90.30;;;;;;4954909;28;20055;-76
2022/06/14 11:12:35;;;;;;;3.97;1.10;;;18.90;90.30;;;;;;4956002;28;20116;-77
2022/06/14 11:15:10;;;;;;;2.58;1.00;;;18.90;90.30;;;;;;4956145;28;20318;-76
2022/06/14 11:18:08;;;;;;;3.03;1.08;;;18.90;90.40;;;;;;4954868;28;20030;-76
2022/06/14 11:20:52;;;;;;;1.02;0.85;;;18.90;90.40;;;;;;4956130;28;20373;-75
2022/06/14 11:23:37;;;;;;;2.50;1.00;;;18.90;90.30;;;;;;4955733;28;20016;-76
2022/06/14 11:26:35;;;;;;;1.65;0.98;;;19.00;90.30;;;;;;4956098;28;20035;-76
2022/06/14 11:29:11;;;;;;;2.38;1.05;;;18.90;90.30;;;;;;4955734;28;20485;-74
2022/06/14 11:31:50;;;;;;;1.77;1.05;;;18.90;90.40;;;;;;4955792;28;20031;-76
2022/06/14 11:34:43;;;;;;;2.13;0.98;;;18.90;90.30;;;;;;4952009;28;20039;-78
2022/06/14 11:37:33;;;;;;;2.33;1.20;;;19.00;90.40;;;;;;4953672;29;20042;-77
2022/06/14 11:40:14;;;;;;;2.58;1.10;;;18.90;90.40;;;;;;4954312;29;20469;-77
2022/06/14 11:43:05;;;;;;;2.60;1.10;;;19.00;90.40;;;;;;4954056;28;20122;-77
2022/06/14 11:45:40;;;;;;;1.88;1.00;;;19.00;90.40;;;;;;4954234;29;20031;-77
2022/06/14 11:48:17;;;;;;;3.70;1.10;;;19.00;90.20;;;;;;4955489;28;20118;-77
2022/06/14 11:50:59;;;;;;;2.83;1.05;;;19.10;90.20;;;;;;4955810;28;20031;-77
2022/06/14 11:53:44;;;;;;;2.00;1.00;;;19.10;90.00;;;;;;4955054;28;20031;-78
2022/06/14 11:56:42;;;;;;;2.63;1.38;;;19.20;90.00;;;;;;4954155;28;20484;-76
2022/06/14 11:59:34;;;;;;;3.17;1.00;;;19.20;90.00;;;;;;4954110;29;20400;-77
2022/06/14 12:02:30;;;;;;;2.35;1.00;;;19.10;90.00;;;;;;4956205;28;20020;-75
2022/06/14 12:05:14;;;;;;;1.48;1.00;;;19.10;90.10;;;;;;4953967;28;20027;-77
2022/06/14 12:07:49;;;;;;;1.83;1.15;;;19.10;90.20;;;;;;4955177;28;20047;-77
2022/06/14 12:10:40;;;;;;;3.05;1.10;;;19.00;90.20;;;;;;4953962;29;20027;-77
2022/06/14 12:13:20;;;;;;;2.10;1.10;;;19.00;90.20;;;;;;4954820;28;20110;-76
2022/06/14 12:16:26;;;;;;;1.52;1.02;;;19.00;90.20;;;;;;4954460;28;20085;-78
2022/06/14 12:19:19;;;;;;;2.03;1.00;;;19.00;90.20;;;;;;4953786;28;20027;-76
2022/06/14 12:22:28;;;;;;;2.28;1.15;;;19.00;90.30;;;;;;4954879;28;20027;-76
2022/06/14 12:27:45;;;;;;;3.38;1.10;;;19.00;90.30;;;;;;4954996;29;20130;-75
2022/06/14 12:30:15;;;;;;;1.77;1.00;;;19.00;90.30;;;;;;4954864;28;20027;-75
2022/06/14 12:32:54;;;;;;;2.83;1.30;;;19.00;90.30;;;;;;4953464;28;20547;-76
2022/06/14 12:35:28;;;;;;;1.75;1.00;;;19.10;90.40;;;;;;4954702;28;20031;-76
2022/06/14 12:38:15;;;;;;;4.15;1.33;;;19.00;90.40;;;;;;4952656;28;20046;-77
2022/06/14 12:41:20;;;;;;;2.30;1.05;;;19.00;90.40;;;;;;4935311;29;20393;-76
2022/06/14 12:43:54;;;;;;;1.45;1.00;;;19.00;90.40;;;;;;4951903;28;20500;-76
2022/06/14 12:46:28;;;;;;;2.85;1.10;;;19.00;90.30;;;;;;4973576;28;20506;-78
2022/06/14 12:49:15;;;;;;;3.25;1.05;;;19.00;90.20;;;;;;4954791;28;20574;-75
2022/06/14 12:51:55;;;;;;;2.20;1.10;;;19.10;90.20;;;;;;4953765;28;20035;-78
2022/06/14 12:54:44;;;;;;;1.95;1.10;;;19.10;90.20;;;;;;4953593;29;20546;-77
2022/06/14 12:57:31;;;;;;;2.90;1.20;;;19.10;90.20;;;;;;4954371;28;20101;-75
2022/06/14 13:00:07;;;;;;;1.40;0.95;;;19.10;90.20;;;;;;4954277;28;20701;-77
2022/06/14 13:02:40;;;;;;;2.08;1.00;;;19.00;90.20;;;;;;4954126;28;20023;-73
2022/06/14 13:05:16;;;;;;;4.45;1.20;;;19.00;90.30;;;;;;4954139;28;20403;-73
2022/06/14 13:07:54;;;;;;;2.00;1.00;;;19.00;90.30;;;;;;4954322;29;20037;-78
2022/06/14 13:10:56;;;;;;;2.75;1.05;;;19.00;90.40;;;;;;4954625;28;20428;-77
2022/06/14 13:13:40;;;;;;;2.42;1.00;;;19.00;90.40;;;;;;4953975;28;20034;-77
2022/06/14 13:16:32;;;;;;;1.67;0.95;;;19.00;90.40;;;;;;4954192;28;20027;-76
2022/06/14 13:19:06;;;;;;;1.92;0.90;;;18.90;90.40;;;;;;4954343;28;20024;-75
2022/06/14 13:22:00;;;;;;;2.25;1.30;;;19.00;90.50;;;;;;4954261;28;20389;-76
2022/06/14 13:24:44;;;;;;;2.25;1.10;;;19.00;90.50;;;;;;4952824;28;20027;-76
2022/06/14 13:27:45;;;;;;;2.45;1.00;;;19.00;90.50;;;;;;4954833;28;20074;-75
2022/06/14 13:30:38;;;;;;;1.48;1.00;;;18.90;90.50;;;;;;4956807;28;20027;-76
2022/06/14 13:33:37;;;;;;;2.10;0.90;;;18.90;90.60;;;;;;4957844;28;20477;-76
2022/06/14 13:36:24;;;;;;;1.88;1.05;;;18.90;90.60;;;;;;4956676;28;20039;-76
2022/06/14 13:39:20;;;;;;;1.98;1.10;;;18.90;90.60;;;;;;4957858;28;20058;-76
2022/06/14 13:42:03;;;;;;;2.08;1.08;;;19.00;90.50;;;;;;4956774;28;20027;-76
2022/06/14 13:44:38;;;;;;;2.20;1.10;;;19.00;90.40;;;;;;4956419;28;20131;-77
2022/06/14 13:47:33;;;;;;;2.92;1.25;;;19.00;90.40;;;;;;4956708;28;20070;-76
2022/06/14 13:50:13;;;;;;;2.15;1.00;;;19.00;90.40;;;;;;4951112;29;20031;-77
2022/06/14 13:52:49;;;;;;;1.90;1.10;;;19.00;90.40;;;;;;4957645;28;20106;-77
2022/06/14 13:55:21;;;;;;;3.65;1.25;;;19.00;90.40;;;;;;4956525;28;20400;-78
2022/06/14 13:57:49;;;;;;;;;;;19.00;90.40;;;;;;4957880;28;20046;-76
2022/06/14 14:00:30;;;;;;;3.33;1.20;;;18.90;90.40;;;;;;4957627;28;19906;-76
2022/06/14 14:03:19;;;;;;;1.17;0.90;;;18.90;90.40;;;;;;4957126;28;21387;-77
2022/06/14 14:06:16;;;;;;;2.17;1.00;;;18.90;90.50;;;;;;4956403;28;20039;-77
2022/06/14 14:08:55;;;;;;;2.78;1.35;;;18.90;90.50;;;;;;4957462;28;20035;-77
2022/06/14 14:11:46;;;;;;;1.63;1.00;;;18.90;90.50;;;;;;4957352;28;20029;-77
2022/06/14 14:14:38;;;;;;;1.63;1.00;;;18.90;90.60;;;;;;4956890;28;20034;-74
2022/06/14 14:17:04;;;;;;;1.27;1.00;;;18.80;90.60;;;;;;4957119;28;20028;-73
2022/06/14 14:20:05;;;;;;;1.67;1.00;;;18.90;90.60;;;;;;4957157;28;20501;-74